Time;durP1;ratioP1;P1;durP2;ratioP2;P2;SDS_P1;SDS_P2;PMS_P1;PMS_P2;Temp;Humidity;BMP_temperature;BMP_pressure;BME280_temperature;BME280_humidity;BME280_pressure;Samples;Min_cycle;Max_cycle;Signal;HPM_P1;HPM_P2
2021/07/27 00:02:09;;;;;;;8.70;5.90;;;15.60;99.90;;;;;;5090786;28;20481;-70
2021/07/27 00:04:35;;;;;;;8.90;5.50;;;15.60;99.90;;;;;;5090787;28;20804;-68
2021/07/27 00:07:02;;;;;;;7.63;6.10;;;15.60;99.90;;;;;;5090535;28;20506;-68
2021/07/27 00:09:29;;;;;;;7.97;6.03;;;15.50;99.90;;;;;;5090489;28;20450;-69
2021/07/27 00:11:58;;;;;;;8.83;6.20;;;15.50;99.90;;;;;;5090761;28;20525;-70
2021/07/27 00:14:25;;;;;;;10.07;7.57;;;15.50;99.90;;;;;;5090662;28;20533;-67
2021/07/27 00:16:51;;;;;;;10.20;6.40;;;15.40;99.90;;;;;;5090201;28;20466;-68
2021/07/27 00:19:18;;;;;;;8.93;5.87;;;15.40;99.90;;;;;;5090145;28;20820;-69
2021/07/27 00:21:45;;;;;;;9.27;6.57;;;15.30;99.90;;;;;;5090625;28;20539;-68
2021/07/27 00:24:12;;;;;;;11.97;7.43;;;15.30;99.90;;;;;;5090480;28;20492;-67
2021/07/27 00:26:39;;;;;;;10.83;6.63;;;15.30;99.90;;;;;;5090601;28;20948;-68
2021/07/27 00:29:07;;;;;;;11.50;7.10;;;15.30;99.90;;;;;;5090205;28;20458;-68
2021/07/27 00:31:34;;;;;;;12.37;7.67;;;15.30;99.90;;;;;;5090302;28;20439;-67
2021/07/27 00:34:01;;;;;;;11.50;7.80;;;15.20;99.90;;;;;;5090625;28;21035;-68
2021/07/27 00:36:28;;;;;;;11.27;7.63;;;15.20;99.90;;;;;;5089475;28;21008;-69
2021/07/27 00:38:56;;;;;;;11.63;7.80;;;15.20;99.90;;;;;;5090224;28;20961;-68
2021/07/27 00:41:22;;;;;;;19.80;7.97;;;15.20;99.90;;;;;;5090139;28;20805;-67
2021/07/27 00:43:49;;;;;;;10.93;7.50;;;15.20;99.90;;;;;;5090122;28;20450;-67
2021/07/27 00:46:17;;;;;;;11.50;7.30;;;15.10;99.90;;;;;;5089869;28;20462;-69
2021/07/27 00:48:45;;;;;;;9.50;6.90;;;15.10;99.90;;;;;;5089950;28;20625;-67
2021/07/27 00:51:12;;;;;;;9.73;6.70;;;15.10;99.90;;;;;;5090231;28;20549;-69
2021/07/27 00:53:39;;;;;;;8.93;7.17;;;15.10;99.90;;;;;;5090449;28;20442;-67
2021/07/27 00:56:07;;;;;;;10.00;7.30;;;15.10;99.90;;;;;;5090379;28;20596;-67
2021/07/27 00:58:34;;;;;;;9.60;7.00;;;15.10;99.90;;;;;;5090076;28;20995;-67
2021/07/27 01:01:01;;;;;;;11.83;7.30;;;15.00;99.90;;;;;;5090030;28;20450;-68
2021/07/27 01:03:30;;;;;;;11.53;6.03;;;15.00;99.90;;;;;;5090006;28;21011;-67
2021/07/27 01:05:57;;;;;;;15.67;7.30;;;15.00;99.90;;;;;;5090307;28;20521;-69
2021/07/27 01:08:23;;;;;;;9.40;6.70;;;15.00;99.90;;;;;;5090127;28;20987;-67
2021/07/27 01:10:50;;;;;;;14.53;7.17;;;15.00;99.90;;;;;;5089730;28;20860;-70
2021/07/27 01:13:17;;;;;;;10.50;7.10;;;15.00;99.90;;;;;;5090249;28;20438;-67
2021/07/27 01:15:44;;;;;;;13.70;7.37;;;14.80;99.90;;;;;;5089815;28;20806;-67
2021/07/27 01:18:16;;;;;;;12.00;7.10;;;14.90;99.90;;;;;;5090007;28;21124;-67
2021/07/27 01:20:56;;;;;;;10.23;6.87;;;15.00;99.90;;;;;;5089653;28;20862;-68
2021/07/27 01:39:49;;;;;;;14.70;8.57;;;14.90;99.90;;;;;;5089640;28;20459;-69
2021/07/27 01:42:16;;;;;;;11.50;7.80;;;14.90;99.90;;;;;;5089491;28;20509;-70
2021/07/27 01:44:45;;;;;;;13.67;7.73;;;14.90;99.90;;;;;;5089805;28;20617;-68
2021/07/27 01:47:13;;;;;;;12.73;7.67;;;14.80;99.90;;;;;;5089377;28;20988;-67
2021/07/27 01:49:41;;;;;;;9.00;7.07;;;14.80;99.90;;;;;;5089419;28;20450;-67
2021/07/27 01:52:12;;;;;;;10.77;7.43;;;14.70;99.90;;;;;;5089626;28;20499;-67
2021/07/27 01:54:55;;;;;;;10.70;6.70;;;14.70;99.90;;;;;;5089842;28;20454;-68
2021/07/27 01:57:23;;;;;;;13.30;7.97;;;14.70;99.90;;;;;;5089753;28;20502;-68
2021/07/27 02:00:00;;;;;;;11.60;7.97;;;14.70;99.90;;;;;;5092658;28;20446;-69
2021/07/27 02:02:27;;;;;;;10.23;8.60;;;14.60;99.90;;;;;;5092830;28;20482;-69
2021/07/27 02:04:54;;;;;;;11.87;8.60;;;14.70;99.90;;;;;;5093050;28;20821;-68
2021/07/27 02:07:21;;;;;;;10.30;7.47;;;14.70;99.90;;;;;;5093019;28;20458;-69
2021/07/27 02:09:51;;;;;;;11.20;8.40;;;14.70;99.90;;;;;;5092762;28;20459;-68
2021/07/27 02:12:20;;;;;;;13.50;9.33;;;14.80;99.90;;;;;;5092939;28;20450;-70
2021/07/27 02:15:04;;;;;;;12.37;9.13;;;14.90;99.90;;;;;;5092862;28;20450;-67
2021/07/27 02:17:31;;;;;;;13.80;9.73;;;14.90;99.90;;;;;;5092423;28;20554;-66
2021/07/27 02:19:59;;;;;;;13.50;11.17;;;15.00;99.90;;;;;;5092397;28;20449;-69
2021/07/27 02:22:27;;;;;;;19.57;12.27;;;14.90;99.90;;;;;;5092467;28;20485;-70
2021/07/27 02:24:53;;;;;;;12.53;10.50;;;14.90;99.90;;;;;;5092570;28;20450;-67
2021/07/27 02:27:22;;;;;;;16.20;11.83;;;14.90;99.90;;;;;;5092538;28;20462;-70
2021/07/27 02:29:49;;;;;;;14.57;10.27;;;14.80;99.90;;;;;;5092125;28;20454;-67
2021/07/27 02:32:16;;;;;;;14.53;9.27;;;14.80;99.90;;;;;;5092971;28;20987;-67
2021/07/27 02:34:43;;;;;;;14.13;10.60;;;14.80;99.90;;;;;;5092663;28;20540;-69
2021/07/27 02:37:10;;;;;;;23.50;10.10;;;14.70;99.90;;;;;;5092698;28;20462;-67
2021/07/27 02:39:37;;;;;;;16.20;10.70;;;14.70;99.90;;;;;;5092355;28;20572;-67
2021/07/27 02:42:04;;;;;;;13.10;10.87;;;14.70;99.90;;;;;;5092872;28;20828;-68
2021/07/27 02:44:32;;;;;;;12.73;9.23;;;14.70;99.90;;;;;;5092415;28;20442;-71
2021/07/27 02:47:00;;;;;;;14.90;10.50;;;14.60;99.90;;;;;;5092463;28;20474;-71
2021/07/27 02:49:26;;;;;;;17.53;10.30;;;14.60;99.90;;;;;;5092353;28;20442;-69
2021/07/27 02:51:53;;;;;;;13.57;9.57;;;14.60;99.90;;;;;;5092474;28;20438;-69
2021/07/27 02:54:20;;;;;;;13.60;10.30;;;14.60;99.90;;;;;;5092310;28;20434;-67
2021/07/27 02:56:47;;;;;;;15.13;9.40;;;14.60;99.90;;;;;;5092034;28;20466;-69
2021/07/27 02:59:13;;;;;;;13.20;9.93;;;14.70;99.90;;;;;;5091777;28;20983;-69
2021/07/27 03:01:42;;;;;;;15.40;9.77;;;14.70;99.90;;;;;;5092012;28;20441;-68
2021/07/27 03:04:09;;;;;;;13.77;11.17;;;14.70;99.90;;;;;;5091890;28;20485;-68
2021/07/27 03:06:35;;;;;;;14.47;10.23;;;14.70;99.90;;;;;;5092160;28;20442;-68
2021/07/27 03:09:15;;;;;;;17.30;10.20;;;14.70;99.90;;;;;;5091286;28;20460;-67
2021/07/27 03:11:43;;;;;;;15.13;9.67;;;14.70;99.90;;;;;;5091637;28;20545;-69
2021/07/27 03:14:10;;;;;;;12.30;9.50;;;14.70;99.90;;;;;;5091854;28;20446;-70
2021/07/27 03:16:37;;;;;;;11.60;10.07;;;14.60;99.90;;;;;;5091834;28;20547;-69
2021/07/27 03:19:05;;;;;;;14.30;8.97;;;14.60;99.90;;;;;;5091667;28;20446;-68
2021/07/27 03:21:32;;;;;;;14.20;10.30;;;14.50;99.90;;;;;;5091960;28;20446;-68
2021/07/27 03:23:59;;;;;;;10.57;8.73;;;14.50;99.90;;;;;;5091947;28;20482;-71
2021/07/27 03:26:26;;;;;;;15.90;10.10;;;14.50;99.90;;;;;;5091252;28;20940;-68
2021/07/27 03:28:54;;;;;;;12.60;8.90;;;14.60;99.90;;;;;;5091666;28;20544;-68
2021/07/27 03:31:21;;;;;;;13.70;9.57;;;14.60;99.90;;;;;;5091324;28;20446;-67
2021/07/27 03:33:48;;;;;;;16.40;9.63;;;14.60;99.90;;;;;;5091501;28;20531;-68
2021/07/27 03:36:16;;;;;;;16.33;9.73;;;14.70;99.90;;;;;;5091391;28;20446;-69
2021/07/27 03:38:43;;;;;;;12.60;9.77;;;14.70;99.90;;;;;;5090888;28;20549;-68
2021/07/27 03:41:11;;;;;;;10.93;9.73;;;14.80;99.90;;;;;;5091487;28;20818;-68
2021/07/27 03:43:39;;;;;;;12.30;9.40;;;14.90;99.90;;;;;;5091286;28;20855;-69
2021/07/27 03:46:07;;;;;;;14.33;10.80;;;15.00;99.90;;;;;;5091214;28;20510;-68
2021/07/27 03:48:35;;;;;;;21.33;12.43;;;15.10;99.90;;;;;;5091237;28;20549;-68
2021/07/27 03:51:02;;;;;;;16.23;9.77;;;15.10;99.90;;;;;;5090851;28;20458;-70
2021/07/27 03:53:30;;;;;;;13.37;10.07;;;15.10;99.90;;;;;;5090985;28;20453;-70
2021/07/27 03:55:57;;;;;;;18.10;10.90;;;15.20;99.90;;;;;;5091287;28;20891;-70
2021/07/27 03:58:24;;;;;;;13.43;10.10;;;15.30;99.90;;;;;;5090805;28;20549;-66
2021/07/27 04:00:51;;;;;;;11.23;9.20;;;15.40;99.90;;;;;;5090427;28;20442;-70
2021/07/27 04:03:18;;;;;;;16.30;11.30;;;15.40;99.90;;;;;;5090739;28;20525;-68
2021/07/27 04:05:45;;;;;;;16.37;9.43;;;15.30;99.90;;;;;;5090928;28;20898;-69
2021/07/27 04:08:12;;;;;;;18.33;10.53;;;15.30;99.90;;;;;;5090636;28;20550;-67
2021/07/27 04:10:41;;;;;;;15.47;10.30;;;15.20;99.90;;;;;;5090346;28;20499;-70
2021/07/27 04:13:08;;;;;;;12.37;9.47;;;15.20;99.90;;;;;;5090635;28;20442;-69
2021/07/27 04:15:44;;;;;;;16.93;10.23;;;15.20;99.90;;;;;;5090374;28;20453;-68
2021/07/27 04:18:11;;;;;;;15.57;9.43;;;15.10;99.90;;;;;;5090469;28;20545;-68
2021/07/27 04:20:38;;;;;;;13.43;8.63;;;15.10;99.90;;;;;;5088918;28;20446;-68
2021/07/27 04:23:05;;;;;;;14.80;9.33;;;15.10;99.90;;;;;;5090641;28;20489;-66
2021/07/27 04:25:33;;;;;;;13.20;9.03;;;15.10;99.90;;;;;;5090236;28;20446;-68
2021/07/27 04:28:01;;;;;;;14.30;10.00;;;15.00;99.90;;;;;;5091789;28;20553;-68
2021/07/27 04:30:28;;;;;;;11.30;9.33;;;15.00;99.90;;;;;;5089840;28;20545;-69
2021/07/27 04:32:55;;;;;;;13.30;11.47;;;15.00;99.90;;;;;;5090236;28;20527;-67
2021/07/27 04:35:22;;;;;;;14.20;9.63;;;15.00;99.90;;;;;;5090431;28;20464;-68
2021/07/27 04:37:51;;;;;;;17.87;10.10;;;15.10;99.90;;;;;;5090458;28;20902;-67
2021/07/27 04:40:18;;;;;;;12.93;9.13;;;15.10;99.90;;;;;;5089743;28;20452;-67
2021/07/27 04:42:45;;;;;;;14.53;10.20;;;15.10;99.90;;;;;;5090112;28;20565;-67
2021/07/27 04:45:14;;;;;;;14.70;11.07;;;15.20;99.90;;;;;;5089961;28;20456;-69
2021/07/27 04:47:40;;;;;;;16.00;10.07;;;15.20;99.90;;;;;;5089681;28;20470;-68
2021/07/27 04:50:08;;;;;;;14.80;9.80;;;15.30;99.90;;;;;;5087921;28;20561;-65
2021/07/27 04:52:37;;;;;;;12.43;9.37;;;15.30;99.90;;;;;;5079969;28;20967;-66
2021/07/27 04:55:05;;;;;;;18.73;10.13;;;15.40;99.90;;;;;;5084288;28;20496;-66
2021/07/27 04:57:33;;;;;;;12.60;10.10;;;15.40;99.90;;;;;;5081354;28;20489;-67
2021/07/27 05:00:00;;;;;;;20.33;11.67;;;15.40;99.90;;;;;;5076813;28;20470;-68
2021/07/27 05:02:29;;;;;;;12.40;9.90;;;15.50;99.90;;;;;;5080048;28;20450;-68
2021/07/27 05:04:55;;;;;;;15.47;10.63;;;15.50;99.90;;;;;;5076035;28;20487;-68
2021/07/27 05:07:22;;;;;;;14.80;10.80;;;15.50;99.90;;;;;;5079427;28;20562;-68
2021/07/27 05:09:49;;;;;;;16.90;9.40;;;15.60;99.90;;;;;;5078554;28;20445;-65
2021/07/27 05:12:16;;;;;;;12.87;8.70;;;15.60;99.90;;;;;;5085563;28;20533;-69
2021/07/27 05:14:43;;;;;;;13.20;10.83;;;15.70;99.90;;;;;;5089517;28;20449;-70
2021/07/27 05:17:11;;;;;;;13.00;10.20;;;15.70;99.90;;;;;;5086704;28;20466;-68
2021/07/27 05:19:54;;;;;;;12.57;10.13;;;15.80;99.90;;;;;;5068855;28;20746;-68
2021/07/27 05:22:23;;;;;;;13.53;10.67;;;15.80;99.90;;;;;;5085650;28;20438;-68
2021/07/27 05:24:50;;;;;;;15.77;11.40;;;15.90;99.90;;;;;;5087721;28;21057;-68
2021/07/27 05:27:17;;;;;;;13.87;10.17;;;15.90;99.90;;;;;;5088086;28;20501;-69
2021/07/27 05:29:44;;;;;;;11.03;9.80;;;16.00;99.90;;;;;;5088192;28;20450;-68
2021/07/27 05:32:10;;;;;;;12.47;10.30;;;16.10;99.90;;;;;;5089806;28;20442;-68
2021/07/27 05:34:37;;;;;;;14.30;10.33;;;16.10;99.90;;;;;;5092899;28;20869;-69
2021/07/27 05:37:06;;;;;;;10.60;9.37;;;16.20;99.90;;;;;;5093159;28;20462;-68
2021/07/27 05:39:33;;;;;;;10.13;8.87;;;16.30;99.90;;;;;;5092482;28;20969;-69
2021/07/27 05:42:00;;;;;;;11.37;10.00;;;16.30;99.90;;;;;;5093279;28;20446;-67
2021/07/27 05:44:27;;;;;;;9.87;8.20;;;16.50;99.90;;;;;;5093076;28;20478;-68
2021/07/27 05:46:55;;;;;;;11.27;9.27;;;16.50;99.90;;;;;;5093003;28;20478;-68
2021/07/27 05:49:22;;;;;;;14.70;9.90;;;16.50;99.90;;;;;;5092652;28;20442;-65
2021/07/27 05:51:49;;;;;;;12.53;9.80;;;16.60;99.90;;;;;;5092911;28;20477;-69
2021/07/27 05:54:19;;;;;;;11.97;10.47;;;16.60;99.90;;;;;;5093019;28;20533;-67
2021/07/27 05:56:47;;;;;;;12.27;10.33;;;16.60;99.90;;;;;;5092679;28;20453;-69
2021/07/27 05:59:14;;;;;;;11.23;8.70;;;16.70;99.90;;;;;;5092411;28;21198;-70
2021/07/27 06:01:41;;;;;;;12.17;9.47;;;16.80;99.90;;;;;;5092721;28;20537;-67
2021/07/27 06:04:08;;;;;;;11.37;10.17;;;16.80;99.90;;;;;;5092579;28;20488;-69
2021/07/27 06:06:35;;;;;;;12.87;9.33;;;16.90;99.90;;;;;;5092487;28;20537;-68
2021/07/27 06:09:03;;;;;;;15.03;10.30;;;17.10;99.90;;;;;;5092641;28;21025;-67
2021/07/27 06:11:31;;;;;;;13.10;9.50;;;17.30;99.90;;;;;;5092619;28;20452;-67
2021/07/27 06:14:00;;;;;;;11.23;10.10;;;17.50;99.90;;;;;;5092580;28;20446;-69
2021/07/27 06:16:26;;;;;;;10.27;9.23;;;17.70;99.90;;;;;;5092381;28;20540;-67
2021/07/27 06:18:53;;;;;;;10.20;8.63;;;17.90;99.90;;;;;;5092463;28;20545;-66
2021/07/27 06:21:20;;;;;;;11.47;9.10;;;18.00;99.90;;;;;;5092163;28;20450;-65
2021/07/27 06:23:47;;;;;;;10.23;8.60;;;18.20;99.90;;;;;;5092422;28;20488;-66
2021/07/27 06:26:14;;;;;;;10.93;8.67;;;18.50;99.90;;;;;;5092605;28;20438;-66
2021/07/27 06:28:42;;;;;;;10.87;9.63;;;18.80;99.90;;;;;;5092476;28;20462;-66
2021/07/27 06:31:11;;;;;;;11.07;8.40;;;19.10;99.90;;;;;;5092244;28;20541;-65
2021/07/27 06:33:39;;;;;;;10.70;8.00;;;19.20;99.90;;;;;;5092234;28;20450;-65
2021/07/27 06:36:06;;;;;;;8.43;7.53;;;19.40;99.90;;;;;;5091443;28;20460;-66
2021/07/27 06:38:33;;;;;;;10.50;7.97;;;19.50;99.90;;;;;;5091621;28;20465;-65
2021/07/27 06:41:00;;;;;;;10.67;8.30;;;19.60;99.90;;;;;;5091709;28;20442;-65
2021/07/27 06:43:27;;;;;;;10.63;7.93;;;19.60;99.90;;;;;;5091222;28;20482;-66
2021/07/27 06:45:56;;;;;;;8.60;7.30;;;19.60;99.90;;;;;;5091564;28;20468;-66
2021/07/27 06:48:23;;;;;;;8.40;7.40;;;19.60;99.90;;;;;;5091843;28;20470;-66
2021/07/27 06:50:51;;;;;;;9.50;7.73;;;19.60;99.90;;;;;;5091391;28;21031;-66
2021/07/27 06:53:18;;;;;;;8.13;7.07;;;19.60;99.90;;;;;;5091607;28;20498;-67
2021/07/27 06:55:45;;;;;;;8.40;7.60;;;19.70;99.90;;;;;;5091691;28;20442;-65
2021/07/27 06:58:11;;;;;;;10.20;7.73;;;19.70;99.90;;;;;;5091296;28;21311;-68
2021/07/27 07:00:39;;;;;;;8.43;7.00;;;19.80;99.90;;;;;;5091404;28;20545;-67
2021/07/27 07:03:08;;;;;;;9.03;7.40;;;19.80;99.90;;;;;;5091488;28;20447;-67
2021/07/27 07:05:36;;;;;;;10.17;7.90;;;20.00;99.90;;;;;;5091417;28;20484;-67
2021/07/27 07:08:03;;;;;;;9.87;7.30;;;20.10;99.90;;;;;;5091278;28;20465;-68
2021/07/27 07:10:30;;;;;;;9.20;7.27;;;20.20;99.90;;;;;;5086175;28;21128;-66
2021/07/27 07:12:56;;;;;;;8.43;7.30;;;20.40;99.90;;;;;;5082887;28;20930;-66
2021/07/27 07:15:24;;;;;;;9.10;6.90;;;20.40;99.90;;;;;;5078095;28;20935;-67
2021/07/27 07:17:50;;;;;;;9.27;7.87;;;20.50;99.90;;;;;;5075451;28;20853;-67
2021/07/27 07:20:20;;;;;;;8.93;6.50;;;20.50;99.90;;;;;;5074836;28;20534;-66
2021/07/27 07:22:46;;;;;;;10.47;7.80;;;20.50;99.90;;;;;;5076057;28;20573;-67
2021/07/27 07:25:14;;;;;;;10.70;7.50;;;20.40;99.90;;;;;;5077429;28;20488;-68
2021/07/27 07:27:41;;;;;;;8.13;7.30;;;20.30;99.90;;;;;;5083929;28;20541;-67
2021/07/27 07:30:08;;;;;;;9.90;7.97;;;20.50;99.90;;;;;;5090772;28;20451;-68
2021/07/27 07:32:35;;;;;;;10.63;7.27;;;20.80;99.90;;;;;;5091127;28;20533;-66
2021/07/27 07:35:03;;;;;;;8.33;6.87;;;21.10;99.90;;;;;;5083676;28;20561;-68
2021/07/27 07:37:31;;;;;;;8.53;6.50;;;21.30;99.90;;;;;;5087156;28;20470;-66
2021/07/27 07:39:58;;;;;;;9.13;5.93;;;21.40;99.90;;;;;;5090408;28;20449;-68
2021/07/27 07:42:24;;;;;;;8.77;6.73;;;21.40;99.90;;;;;;5091089;28;20905;-68
2021/07/27 07:44:51;;;;;;;7.90;6.27;;;21.20;99.90;;;;;;5087390;28;20564;-66
2021/07/27 07:47:18;;;;;;;9.80;6.47;;;21.20;99.90;;;;;;5077250;28;20467;-68
2021/07/27 07:49:45;;;;;;;6.90;6.20;;;21.30;99.90;;;;;;5077583;28;20814;-68
2021/07/27 07:52:12;;;;;;;9.13;6.30;;;21.30;99.90;;;;;;5069705;28;20447;-66
2021/07/27 07:54:40;;;;;;;6.57;5.90;;;21.40;99.90;;;;;;5069366;28;20899;-68
2021/07/27 07:57:07;;;;;;;7.87;6.43;;;21.50;99.90;;;;;;5077879;28;20467;-68
2021/07/27 07:59:34;;;;;;;8.20;6.50;;;21.50;99.90;;;;;;5085801;28;20452;-66
2021/07/27 08:02:01;;;;;;;6.80;5.50;;;21.60;99.90;;;;;;5089674;28;20456;-66
2021/07/27 08:04:28;;;;;;;6.80;6.10;;;21.80;99.90;;;;;;5089742;28;20477;-67
2021/07/27 08:06:55;;;;;;;7.60;6.00;;;22.10;99.90;;;;;;5089628;28;20558;-68
2021/07/27 08:09:22;;;;;;;8.57;6.30;;;22.20;99.90;;;;;;5089520;28;20441;-67
2021/07/27 08:11:50;;;;;;;7.20;5.80;;;22.60;99.90;;;;;;5089916;28;20446;-66
2021/07/27 08:14:17;;;;;;;8.20;6.30;;;22.90;99.90;;;;;;5089605;28;20478;-65
2021/07/27 08:16:44;;;;;;;6.80;6.10;;;23.20;99.90;;;;;;5089561;28;20533;-66
2021/07/27 08:19:11;;;;;;;7.03;5.23;;;23.40;99.90;;;;;;5089418;28;20882;-66
2021/07/27 08:21:39;;;;;;;6.40;5.80;;;23.70;99.90;;;;;;5082738;28;20460;-67
2021/07/27 08:24:06;;;;;;;7.10;5.70;;;23.60;99.90;;;;;;5085059;28;20482;-67
2021/07/27 08:26:33;;;;;;;9.13;5.83;;;23.50;99.90;;;;;;5083900;28;20936;-65
2021/07/27 08:29:02;;;;;;;6.33;5.73;;;23.60;99.90;;;;;;5069907;28;20447;-66
2021/07/27 08:31:29;;;;;;;6.73;5.87;;;23.70;99.90;;;;;;5075662;28;20533;-67
2021/07/27 08:33:56;;;;;;;5.93;5.33;;;23.70;99.90;;;;;;5089929;28;20442;-68
2021/07/27 08:36:23;;;;;;;6.13;5.53;;;23.70;99.90;;;;;;5069742;28;20449;-66
2021/07/27 08:38:50;;;;;;;6.60;5.17;;;23.60;99.90;;;;;;5079251;28;20466;-66
2021/07/27 08:41:18;;;;;;;7.07;6.37;;;23.30;99.90;;;;;;5084784;28;20435;-67
2021/07/27 08:43:44;;;;;;;6.90;6.20;;;23.40;99.90;;;;;;5090180;28;20442;-68
2021/07/27 08:46:16;;;;;;;7.70;6.30;;;23.60;99.90;;;;;;5089898;28;20948;-67
2021/07/27 08:48:44;;;;;;;6.77;6.07;;;23.70;99.90;;;;;;5089950;28;20481;-67
2021/07/27 08:51:12;;;;;;;5.80;5.17;;;24.00;99.90;;;;;;5089946;28;20473;-68
2021/07/27 08:53:39;;;;;;;7.93;6.63;;;24.10;99.90;;;;;;5090048;28;20453;-68
2021/07/27 08:56:06;;;;;;;8.23;6.10;;;24.40;99.90;;;;;;5090232;28;20438;-66
2021/07/27 08:58:33;;;;;;;7.60;5.90;;;24.50;99.90;;;;;;5089791;28;20466;-68
2021/07/27 09:01:00;;;;;;;6.63;5.87;;;24.50;99.90;;;;;;5089697;28;20529;-67
2021/07/27 09:03:28;;;;;;;6.73;5.80;;;24.60;99.90;;;;;;5089979;28;20537;-66
2021/07/27 09:06:05;;;;;;;7.40;5.60;;;24.50;99.90;;;;;;5089927;28;20482;-67
2021/07/27 09:08:32;;;;;;;9.33;6.90;;;24.50;99.90;;;;;;5092923;28;21065;-67
2021/07/27 09:11:01;;;;;;;6.70;5.80;;;24.40;99.90;;;;;;5093901;28;20449;-66
2021/07/27 09:13:33;;;;;;;6.67;6.07;;;24.40;99.90;;;;;;5094034;28;20450;-67
2021/07/27 09:16:00;;;;;;;7.27;5.80;;;24.60;99.90;;;;;;5091745;28;20427;-67
2021/07/27 09:18:30;;;;;;;6.33;5.73;;;24.60;99.90;;;;;;5080375;28;20558;-67
2021/07/27 09:20:58;;;;;;;7.57;6.60;;;24.70;99.90;;;;;;5080237;28;20461;-67
2021/07/27 09:23:26;;;;;;;6.97;6.03;;;24.80;99.90;;;;;;5089626;28;20450;-66
2021/07/27 09:25:55;;;;;;;6.80;5.40;;;24.60;99.90;;;;;;5093272;28;20497;-69
2021/07/27 09:28:23;;;;;;;8.03;5.37;;;24.50;99.90;;;;;;5093124;28;20913;-68
2021/07/27 09:30:51;;;;;;;8.20;6.00;;;24.40;99.90;;;;;;5082773;28;20450;-67
2021/07/27 09:33:28;;;;;;;6.03;5.43;;;24.30;99.90;;;;;;5072939;28;21008;-67
2021/07/27 09:35:56;;;;;;;7.13;6.20;;;24.30;99.90;;;;;;5073238;28;20438;-67
2021/07/27 09:38:25;;;;;;;6.23;5.47;;;24.20;99.90;;;;;;5072889;28;20501;-68
2021/07/27 09:40:53;;;;;;;6.07;5.47;;;24.10;99.90;;;;;;5072451;28;20485;-68
2021/07/27 09:43:22;;;;;;;8.73;6.50;;;23.90;99.90;;;;;;5072955;28;20486;-67
2021/07/27 09:45:51;;;;;;;7.07;6.23;;;23.90;99.90;;;;;;5072702;28;20565;-66
2021/07/27 09:48:20;;;;;;;6.90;5.70;;;24.20;99.90;;;;;;5072796;28;20470;-67
2021/07/27 09:50:49;;;;;;;6.63;6.03;;;24.50;99.90;;;;;;5072410;28;20451;-67
2021/07/27 09:53:18;;;;;;;7.40;6.30;;;24.30;99.90;;;;;;5072482;28;20558;-69
2021/07/27 09:55:45;;;;;;;8.57;6.83;;;24.50;99.90;;;;;;5072673;28;20447;-66
2021/07/27 09:58:13;;;;;;;6.73;6.03;;;24.70;99.90;;;;;;5072886;28;20554;-67
2021/07/27 10:00:50;;;;;;;7.03;5.53;;;25.20;99.90;;;;;;5072416;28;20449;-69
2021/07/27 10:03:21;;;;;;;8.53;5.50;;;26.10;99.90;;;;;;5080593;28;20456;-68
2021/07/27 10:05:53;;;;;;;6.90;5.20;;;27.00;99.90;;;;;;5088769;28;20484;-67
2021/07/27 10:08:30;;;;;;;8.50;6.57;;;27.60;99.90;;;;;;5077796;28;20462;-70
2021/07/27 10:11:07;;;;;;;6.90;6.20;;;27.60;99.90;;;;;;5080346;28;20454;-71
2021/07/27 10:13:35;;;;;;;8.00;5.10;;;27.60;99.90;;;;;;5077315;28;20454;-68
2021/07/27 10:16:03;;;;;;;6.07;5.50;;;27.90;99.90;;;;;;5079787;28;20451;-68
2021/07/27 10:18:32;;;;;;;6.57;6.00;;;28.40;99.90;;;;;;5075167;28;20840;-69
2021/07/27 10:21:23;;;;;;;6.60;5.90;;;29.00;99.90;;;;;;5077316;28;20458;-68
2021/07/27 10:23:51;;;;;;;6.30;5.70;;;29.50;99.90;;;;;;5079409;28;20459;-67
2021/07/27 10:26:27;;;;;;;7.50;5.60;;;30.00;99.90;;;;;;5075987;28;20999;-68
2021/07/27 10:28:55;;;;;;;6.10;5.50;;;30.30;98.10;;;;;;5110770;22;20489;-72
2021/07/27 10:31:32;;;;;;;6.50;5.70;;;30.10;98.10;;;;;;5096427;27;20882;-71
2021/07/27 10:34:00;;;;;;;7.23;5.77;;;30.10;96.30;;;;;;5099938;27;20497;-71
2021/07/27 10:36:31;;;;;;;5.93;5.20;;;30.00;98.40;;;;;;5099298;27;20466;-72
2021/07/27 10:39:14;;;;;;;6.40;5.43;;;29.20;98.10;;;;;;5102178;28;21022;-71
2021/07/27 10:41:43;;;;;;;8.37;6.10;;;29.20;99.80;;;;;;5102531;28;20554;-71
2021/07/27 10:44:12;;;;;;;7.10;5.20;;;29.90;99.60;;;;;;5098762;28;20937;-72
2021/07/27 10:46:44;;;;;;;6.50;5.30;;;30.60;97.50;;;;;;5103239;28;20496;-71
2021/07/27 10:49:21;;;;;;;5.83;5.20;;;31.50;97.20;;;;;;5105604;28;20537;-71
2021/07/27 10:51:48;;;;;;;6.30;5.30;;;31.90;95.30;;;;;;5098273;28;20438;-71
2021/07/27 10:54:18;;;;;;;5.13;4.63;;;32.30;96.30;;;;;;5091271;28;20530;-71
2021/07/27 10:56:57;;;;;;;6.63;5.40;;;31.90;93.20;;;;;;5091269;28;20468;-71
2021/07/27 10:59:26;;;;;;;6.40;5.73;;;31.90;92.70;;;;;;5094122;28;20434;-71
2021/07/27 11:01:53;;;;;;;5.80;5.20;;;30.80;96.20;;;;;;5099708;28;20449;-74
2021/07/27 11:04:27;;;;;;;6.60;5.17;;;30.90;98.20;;;;;;5093725;28;20453;-73
2021/07/27 11:06:54;;;;;;;6.47;5.50;;;31.40;96.20;;;;;;5097991;28;20869;-73
2021/07/27 11:09:22;;;;;;;6.90;5.20;;;32.00;94.50;;;;;;5101316;28;20506;-72
2021/07/27 11:11:50;;;;;;;5.70;5.17;;;32.10;93.30;;;;;;5093474;28;20528;-73
2021/07/27 11:14:24;;;;;;;6.03;5.13;;;32.50;94.80;;;;;;5099640;28;20450;-72
2021/07/27 11:16:52;;;;;;;5.37;4.87;;;33.00;94.00;;;;;;5096843;28;20462;-72
2021/07/27 11:19:31;;;;;;;5.20;4.70;;;33.40;90.20;;;;;;5109518;22;20487;-67
2021/07/27 11:21:59;;;;;;;5.53;5.03;;;33.50;92.70;;;;;;5072409;28;20453;-68
2021/07/27 11:24:29;;;;;;;5.73;5.23;;;33.70;89.10;;;;;;5074046;28;20443;-68
2021/07/27 11:26:56;;;;;;;5.83;5.23;;;33.80;91.10;;;;;;5070422;28;20492;-67
2021/07/27 11:29:23;;;;;;;5.77;5.17;;;34.10;88.00;;;;;;5056361;28;20493;-68
2021/07/27 11:31:51;;;;;;;5.50;5.00;;;34.40;89.20;;;;;;5059370;28;20443;-67
2021/07/27 11:34:31;;;;;;;5.13;4.63;;;34.50;85.40;;;;;;5050877;28;20453;-68
2021/07/27 11:36:59;;;;;;;5.00;4.50;;;34.70;80.30;;;;;;5051837;28;20531;-69
2021/07/27 11:39:27;;;;;;;6.80;4.33;;;35.00;79.40;;;;;;5049707;28;20479;-67
2021/07/27 11:42:01;;;;;;;5.73;5.13;;;34.40;80.80;;;;;;5049716;28;20456;-67
2021/07/27 11:44:29;;;;;;;7.33;5.47;;;33.80;81.70;;;;;;5050038;28;20451;-68
2021/07/27 11:46:56;;;;;;;6.00;5.20;;;32.50;80.60;;;;;;5047462;28;20475;-67
2021/07/27 11:49:23;;;;;;;7.03;5.27;;;31.10;84.90;;;;;;5050467;28;20448;-69
2021/07/27 11:52:01;;;;;;;6.10;5.50;;;30.50;88.30;;;;;;5047631;28;20451;-68
2021/07/27 11:54:29;;;;;;;6.10;5.00;;;30.30;92.10;;;;;;5047691;28;20444;-68
2021/07/27 11:56:55;;;;;;;5.97;5.37;;;29.90;90.60;;;;;;5047596;28;20961;-68
2021/07/27 11:59:27;;;;;;;6.10;5.50;;;29.60;90.00;;;;;;5047628;28;20462;-72
2021/07/27 12:01:55;;;;;;;5.60;5.10;;;29.70;92.80;;;;;;5047929;28;20521;-69
2021/07/27 12:04:22;;;;;;;6.20;5.60;;;29.80;93.60;;;;;;5047707;28;21036;-71
2021/07/27 12:06:51;;;;;;;7.80;5.50;;;30.20;91.70;;;;;;5047854;28;20485;-71
2021/07/27 12:09:20;;;;;;;6.07;5.40;;;30.60;95.00;;;;;;5047309;28;20559;-70
2021/07/27 12:11:48;;;;;;;5.33;4.83;;;30.80;93.30;;;;;;5048430;28;20452;-70
2021/07/27 12:14:16;;;;;;;6.30;4.93;;;30.80;94.10;;;;;;5049165;28;20639;-70
2021/07/27 12:16:43;;;;;;;5.73;5.13;;;30.80;93.50;;;;;;5048694;28;20455;-70
2021/07/27 12:19:10;;;;;;;6.30;5.13;;;30.90;94.40;;;;;;5048151;28;20482;-70
2021/07/27 12:21:37;;;;;;;6.50;5.90;;;31.00;92.30;;;;;;5048365;28;20479;-70
2021/07/27 12:24:05;;;;;;;5.83;5.33;;;31.50;91.90;;;;;;5047774;28;20451;-70
2021/07/27 12:26:35;;;;;;;5.20;4.70;;;31.60;92.20;;;;;;5048085;28;21406;-70
2021/07/27 12:29:04;;;;;;;5.83;5.33;;;31.90;92.10;;;;;;5047930;28;20475;-70
2021/07/27 12:31:32;;;;;;;7.83;5.23;;;32.20;92.80;;;;;;5047740;28;20440;-69
2021/07/27 12:33:59;;;;;;;5.10;4.60;;;32.50;92.30;;;;;;5047856;28;20527;-70
2021/07/27 12:36:26;;;;;;;6.00;4.70;;;32.60;91.60;;;;;;5047318;28;20531;-69
2021/07/27 12:38:53;;;;;;;4.87;4.37;;;32.20;87.90;;;;;;5048723;28;20550;-69
2021/07/27 12:41:20;;;;;;;6.70;5.10;;;32.60;90.80;;;;;;5048012;28;20520;-68
2021/07/27 12:43:47;;;;;;;5.30;4.40;;;32.90;88.30;;;;;;5049952;28;21013;-68
2021/07/27 12:46:17;;;;;;;5.13;4.47;;;33.10;89.00;;;;;;5050030;28;20574;-68
2021/07/27 12:48:44;;;;;;;7.40;4.90;;;33.50;90.40;;;;;;5049800;28;20475;-68
2021/07/27 12:51:16;;;;;;;5.70;5.17;;;34.10;81.90;;;;;;5049433;28;20821;-68
2021/07/27 12:53:43;;;;;;;4.90;4.40;;;34.90;83.10;;;;;;5048196;28;20969;-69
2021/07/27 12:56:10;;;;;;;5.20;4.70;;;34.90;83.50;;;;;;5047660;28;20527;-69
2021/07/27 12:58:36;;;;;;;4.80;4.30;;;35.60;84.90;;;;;;5047292;28;20938;-69
2021/07/27 13:01:03;;;;;;;5.73;4.33;;;36.90;81.90;;;;;;5047440;28;20505;-69
2021/07/27 13:03:31;;;;;;;4.13;3.77;;;37.50;81.70;;;;;;5047663;28;20440;-69